Time;durP1;ratioP1;P1;durP2;ratioP2;P2;SDS_P1;SDS_P2;PMS_P1;PMS_P2;Temp;Humidity;BMP_temperature;BMP_pressure;BME280_temperature;BME280_humidity;BME280_pressure;Samples;Min_cycle;Max_cycle;Signal;HPM_P1;HPM_P2
2023/06/04 00:00:21;;;;;;;3.25;1.98;;;;;;;;;;6226855;28;20049;-78
2023/06/04 00:03:22;;;;;;;2.60;1.40;;;;;;;;;;6222258;28;20507;-77
2023/06/04 00:06:24;;;;;;;4.03;1.67;;;;;;;;;;6219993;28;20048;-79
2023/06/04 00:09:26;;;;;;;2.35;1.67;;;;;;;;;;6227851;28;20048;-78
2023/06/04 00:12:28;;;;;;;3.53;1.27;;;;;;;;;;6228161;28;20520;-79
2023/06/04 00:15:29;;;;;;;2.33;1.90;;;;;;;;;;6226415;28;20419;-78
2023/06/04 00:18:31;;;;;;;2.00;1.20;;;;;;;;;;6209691;28;20056;-78
2023/06/04 00:21:33;;;;;;;3.17;1.48;;;;;;;;;;6229953;28;20369;-79
2023/06/04 00:24:37;;;;;;;2.00;1.60;;;;;;;;;;6231371;28;20052;-76
2023/06/04 00:27:39;;;;;;;2.30;1.50;;;;;;;;;;6250844;28;20076;-78
2023/06/04 00:30:40;;;;;;;3.58;1.75;;;;;;;;;;6245835;28;20057;-76
2023/06/04 00:33:42;;;;;;;3.88;1.75;;;;;;;;;;6250912;28;20074;-78
2023/06/04 00:36:44;;;;;;;4.80;1.90;;;;;;;;;;6246041;28;20033;-79
2023/06/04 00:39:45;;;;;;;2.22;1.60;;;;;;;;;;6254197;28;20041;-80
2023/06/04 00:42:49;;;;;;;2.78;1.55;;;;;;;;;;6237630;28;20045;-78
2023/06/04 00:45:52;;;;;;;5.40;2.05;;;;;;;;;;6235889;28;20046;-78
2023/06/04 00:48:54;;;;;;;3.42;1.63;;;;;;;;;;6243375;28;20139;-77
2023/06/04 00:51:56;;;;;;;2.67;1.90;;;;;;;;;;6251031;28;20065;-76
2023/06/04 00:54:58;;;;;;;2.88;1.70;;;;;;;;;;6247081;28;20050;-78
2023/06/04 00:58:00;;;;;;;3.05;2.05;;;;;;;;;;6234013;28;20048;-79
2023/06/04 01:01:04;;;;;;;2.03;1.55;;;;;;;;;;6225234;28;20050;-78
2023/06/04 01:04:25;;;;;;;2.15;1.50;;;;;;;;;;6234473;28;20046;-79
2023/06/04 01:07:28;;;;;;;3.00;1.52;;;;;;;;;;6236812;28;20647;-76
2023/06/04 01:10:30;;;;;;;3.07;1.37;;;;;;;;;;6230583;28;20046;-76
2023/06/04 01:13:32;;;;;;;3.42;1.67;;;;;;;;;;6245886;28;20046;-75
2023/06/04 01:16:50;;;;;;;2.80;1.50;;;;;;;;;;6212973;28;20053;-79
2023/06/04 01:20:13;;;;;;;3.78;1.70;;;;;;;;;;6210464;28;20088;-79
2023/06/04 01:23:33;;;;;;;2.20;1.40;;;;;;;;;;6229106;28;20042;-78
2023/06/04 01:26:36;;;;;;;5.10;1.65;;;;;;;;;;6227609;28;20057;-78
2023/06/04 01:29:38;;;;;;;3.30;2.00;;;;;;;;;;6216696;28;20072;-79
2023/06/04 01:32:39;;;;;;;2.75;1.65;;;;;;;;;;6228046;28;20057;-79
2023/06/04 01:35:42;;;;;;;2.00;1.50;;;;;;;;;;6238990;28;20183;-78
2023/06/04 01:38:43;;;;;;;3.72;1.70;;;;;;;;;;6229610;28;20053;-78
2023/06/04 01:41:45;;;;;;;2.95;1.52;;;;;;;;;;6223069;28;20049;-78
2023/06/04 01:44:47;;;;;;;3.45;1.30;;;;;;;;;;6223296;28;20045;-78
2023/06/04 01:47:49;;;;;;;3.20;1.30;;;;;;;;;;6228859;28;20057;-77
2023/06/04 01:50:51;;;;;;;3.33;1.40;;;;;;;;;;6225096;28;20049;-80
2023/06/04 01:53:53;;;;;;;3.00;1.30;;;;;;;;;;6231385;28;20068;-77
2023/06/04 01:56:54;;;;;;;1.05;0.95;;;;;;;;;;6224230;28;20045;-76
2023/06/04 01:59:56;;;;;;;2.38;1.85;;;;;;;;;;6224659;28;20070;-78
2023/06/04 02:02:59;;;;;;;3.42;1.45;;;;;;;;;;6232473;28;20046;-80
2023/06/04 02:06:01;;;;;;;2.90;1.70;;;;;;;;;;6228560;28;20042;-79
2023/06/04 02:09:03;;;;;;;3.65;2.00;;;;;;;;;;6223704;28;20045;-77
2023/06/04 02:12:05;;;;;;;1.45;1.30;;;;;;;;;;6257587;28;20046;-79
2023/06/04 02:15:10;;;;;;;2.25;1.40;;;;;;;;;;6241496;28;20056;-80
2023/06/04 02:18:18;;;;;;;2.63;1.75;;;;;;;;;;6227624;28;20045;-80
2023/06/04 02:21:19;;;;;;;2.63;1.50;;;;;;;;;;6225887;28;20042;-78
2023/06/04 02:24:22;;;;;;;2.63;1.83;;;;;;;;;;6227979;28;20062;-80
2023/06/04 02:27:23;;;;;;;3.00;1.80;;;;;;;;;;6221191;28;20676;-76
2023/06/04 02:30:25;;;;;;;2.88;2.13;;;;;;;;;;6226897;28;20456;-80
2023/06/04 02:33:27;;;;;;;4.38;1.77;;;;;;;;;;6228928;28;20049;-76
2023/06/04 02:36:30;;;;;;;3.00;1.50;;;;;;;;;;6213290;28;20041;-79
2023/06/04 02:39:31;;;;;;;4.72;1.50;;;;;;;;;;6227247;28;20056;-79
2023/06/04 02:42:33;;;;;;;3.63;1.70;;;;;;;;;;6215131;28;20125;-80
2023/06/04 02:45:35;;;;;;;3.17;1.48;;;;;;;;;;6257632;28;20041;-77
2023/06/04 02:48:37;;;;;;;2.65;1.52;;;;;;;;;;6238039;28;20053;-78
2023/06/04 02:51:39;;;;;;;2.08;1.40;;;;;;;;;;6209613;28;20062;-80
2023/06/04 02:54:41;;;;;;;2.28;1.20;;;;;;;;;;6230476;28;20053;-80
2023/06/04 02:57:43;;;;;;;3.63;1.70;;;;;;;;;;6245859;28;20048;-80
2023/06/04 03:00:45;;;;;;;3.00;1.95;;;;;;;;;;6220213;28;20057;-80
2023/06/04 03:03:47;;;;;;;3.97;1.92;;;;;;;;;;6223895;28;20523;-80
2023/06/04 03:06:57;;;;;;;3.40;1.67;;;;;;;;;;6224307;28;20045;-80
2023/06/04 03:09:59;;;;;;;3.35;1.60;;;;;;;;;;6224947;28;20060;-79
2023/06/04 03:13:01;;;;;;;3.17;1.70;;;;;;;;;;6223176;28;20125;-81
2023/06/04 03:16:03;;;;;;;4.88;1.70;;;;;;;;;;6231476;28;20049;-80
2023/06/04 03:19:05;;;;;;;2.47;1.70;;;;;;;;;;6257686;28;20064;-78
2023/06/04 03:22:08;;;;;;;2.58;1.73;;;;;;;;;;6227757;28;20042;-79
2023/06/04 03:25:10;;;;;;;2.70;1.70;;;;;;;;;;6231432;28;20052;-80
2023/06/04 03:28:12;;;;;;;2.45;1.70;;;;;;;;;;6223673;28;20045;-79
2023/06/04 03:31:14;;;;;;;2.72;1.83;;;;;;;;;;6227480;28;21015;-80
2023/06/04 03:34:16;;;;;;;2.83;2.00;;;;;;;;;;6201820;28;20046;-80
2023/06/04 03:37:18;;;;;;;4.60;1.77;;;;;;;;;;6202256;28;20045;-80
2023/06/04 03:40:20;;;;;;;3.88;1.85;;;;;;;;;;6220380;28;20042;-80
2023/06/04 03:43:22;;;;;;;3.83;1.90;;;;;;;;;;6214175;28;20046;-80
2023/06/04 03:46:31;;;;;;;3.08;2.50;;;;;;;;;;6231706;28;20048;-77
2023/06/04 03:49:34;;;;;;;4.45;2.97;;;;;;;;;;6232411;28;20041;-78
2023/06/04 03:52:35;;;;;;;3.83;2.42;;;;;;;;;;6231507;28;20048;-80
2023/06/04 03:55:38;;;;;;;3.47;2.20;;;;;;;;;;6224068;28;20053;-77
2023/06/04 03:58:42;;;;;;;3.33;1.92;;;;;;;;;;6230957;28;20093;-77
2023/06/04 04:01:44;;;;;;;4.28;2.03;;;;;;;;;;6215583;28;20061;-80
2023/06/04 04:04:46;;;;;;;2.85;1.80;;;;;;;;;;6227613;28;20060;-79
2023/06/04 04:07:48;;;;;;;2.65;1.67;;;;;;;;;;6230520;28;20113;-76
2023/06/04 04:10:53;;;;;;;3.22;1.70;;;;;;;;;;6239683;28;20140;-77
2023/06/04 04:13:55;;;;;;;4.18;1.73;;;;;;;;;;6227804;28;20052;-77
2023/06/04 04:16:57;;;;;;;3.70;2.20;;;;;;;;;;6207848;28;20534;-79
2023/06/04 04:20:01;;;;;;;4.18;2.00;;;;;;;;;;6230672;28;20451;-79
2023/06/04 04:23:03;;;;;;;4.55;2.25;;;;;;;;;;6224113;28;20402;-80
2023/06/04 04:26:16;;;;;;;4.00;1.60;;;;;;;;;;6241215;28;20392;-78
2023/06/04 04:29:24;;;;;;;3.45;1.60;;;;;;;;;;6228452;28;20052;-79
2023/06/04 04:32:33;;;;;;;4.07;2.00;;;;;;;;;;6229936;28;20164;-77
2023/06/04 04:35:38;;;;;;;4.15;2.08;;;;;;;;;;6222087;28;20412;-80
2023/06/04 04:38:40;;;;;;;4.97;2.30;;;;;;;;;;6254951;28;20050;-80
2023/06/04 04:41:42;;;;;;;3.25;1.80;;;;;;;;;;6221884;28;20060;-81
2023/06/04 04:44:47;;;;;;;3.25;2.00;;;;;;;;;;6224966;28;20530;-81
2023/06/04 04:47:50;;;;;;;4.30;2.03;;;;;;;;;;6210909;28;20132;-80
2023/06/04 04:50:53;;;;;;;4.47;1.80;;;;;;;;;;6212763;28;20049;-77
2023/06/04 04:53:55;;;;;;;2.33;1.80;;;;;;;;;;6224921;28;21054;-79
2023/06/04 04:56:58;;;;;;;2.38;1.65;;;;;;;;;;6211302;28;20041;-80
2023/06/04 05:00:08;;;;;;;3.17;1.90;;;;;;;;;;6218026;28;20193;-79
2023/06/04 05:03:13;;;;;;;3.13;1.80;;;;;;;;;;6230505;28;20078;-78
2023/06/04 05:06:15;;;;;;;1.83;1.70;;;;;;;;;;6219810;28;20188;-79
2023/06/04 05:09:17;;;;;;;3.43;1.87;;;;;;;;;;6191377;28;20050;-76
2023/06/04 05:12:20;;;;;;;4.30;2.20;;;;;;;;;;6228232;28;20041;-80
2023/06/04 05:15:24;;;;;;;3.97;1.95;;;;;;;;;;6222980;28;20045;-79
2023/06/04 05:18:30;;;;;;;3.67;2.17;;;;;;;;;;6239333;28;20088;-77
2023/06/04 05:21:36;;;;;;;3.08;1.70;;;;;;;;;;6213291;28;20611;-80
2023/06/04 05:24:40;;;;;;;4.68;2.17;;;;;;;;;;6212620;28;20052;-77
2023/06/04 05:27:42;;;;;;;3.28;1.88;;;;;;;;;;6220856;28;20052;-78
2023/06/04 05:30:48;;;;;;;2.28;1.75;;;;;;;;;;6216902;28;20141;-81
2023/06/04 05:33:52;;;;;;;2.20;1.55;;;;;;;;;;6223344;28;20136;-79
2023/06/04 05:36:57;;;;;;;2.78;1.63;;;;;;;;;;6247534;28;20065;-80
2023/06/04 05:40:00;;;;;;;2.78;1.63;;;;;;;;;;6197702;28;20046;-80
2023/06/04 05:43:01;;;;;;;3.80;1.58;;;;;;;;;;6228846;28;20045;-77
2023/06/04 05:46:03;;;;;;;1.80;1.38;;;;;;;;;;6257295;28;20124;-79
2023/06/04 05:49:05;;;;;;;3.28;1.88;;;;;;;;;;6212977;28;20041;-80
2023/06/04 05:52:07;;;;;;;2.75;1.50;;;;;;;;;;6230786;28;20048;-79
2023/06/04 05:55:10;;;;;;;6.78;1.70;;;;;;;;;;6222123;28;20037;-80
2023/06/04 05:58:12;;;;;;;2.00;1.42;;;;;;;;;;6224571;28;20045;-80
2023/06/04 06:01:14;;;;;;;2.92;1.67;;;;;;;;;;6223404;28;20050;-78
2023/06/04 06:04:16;;;;;;;2.55;1.70;;;;;;;;;;6241736;28;20041;-78
2023/06/04 06:07:19;;;;;;;2.47;1.60;;;;;;;;;;6225603;28;20049;-81
2023/06/04 06:10:22;;;;;;;3.85;2.00;;;;;;;;;;6224565;28;20501;-79
2023/06/04 06:13:23;;;;;;;2.38;1.50;;;;;;;;;;6225012;28;20045;-80
2023/06/04 06:16:25;;;;;;;3.25;1.65;;;;;;;;;;6230586;28;20045;-76
2023/06/04 06:19:27;;;;;;;2.13;1.50;;;;;;;;;;6258133;28;20046;-76
2023/06/04 06:22:29;;;;;;;3.08;1.80;;;;;;;;;;6232335;28;20052;-78
2023/06/04 06:25:32;;;;;;;3.70;1.50;;;;;;;;;;6223806;28;20061;-78
2023/06/04 06:28:39;;;;;;;2.75;1.60;;;;;;;;;;6224373;28;20471;-78
2023/06/04 06:31:41;;;;;;;1.98;1.50;;;;;;;;;;6204311;28;20060;-80
2023/06/04 06:34:43;;;;;;;2.25;1.45;;;;;;;;;;6228652;28;20054;-77
2023/06/04 06:37:45;;;;;;;3.92;1.50;;;;;;;;;;6224855;28;20049;-79
2023/06/04 06:40:46;;;;;;;4.25;1.67;;;;;;;;;;6232075;28;20057;-78
2023/06/04 06:43:48;;;;;;;2.67;1.33;;;;;;;;;;6235756;28;20069;-78
2023/06/04 06:46:50;;;;;;;2.25;1.40;;;;;;;;;;6201870;28;20042;-79
2023/06/04 06:49:52;;;;;;;2.55;1.55;;;;;;;;;;6227913;28;20065;-78
2023/06/04 06:52:53;;;;;;;4.22;1.67;;;;;;;;;;6228092;28;20042;-80
2023/06/04 06:55:55;;;;;;;2.40;1.85;;;;;;;;;;6225585;28;20038;-79
2023/06/04 06:58:57;;;;;;;2.55;1.50;;;;;;;;;;6231265;28;20401;-80
2023/06/04 07:01:58;;;;;;;2.55;1.55;;;;;;;;;;6227044;28;20053;-80
2023/06/04 07:05:00;;;;;;;2.17;1.40;;;;;;;;;;6230721;28;20049;-80
2023/06/04 07:08:02;;;;;;;2.92;1.50;;;;;;;;;;6226494;28;20050;-76
2023/06/04 07:11:04;;;;;;;2.78;1.67;;;;;;;;;;6229435;28;20053;-78
2023/06/04 07:14:06;;;;;;;4.23;1.30;;;;;;;;;;6255545;28;20523;-80
2023/06/04 07:17:08;;;;;;;2.35;1.30;;;;;;;;;;6230064;28;20448;-81
2023/06/04 07:20:10;;;;;;;1.42;1.15;;;;;;;;;;6230126;28;20049;-82
2023/06/04 07:23:11;;;;;;;2.30;1.10;;;;;;;;;;6225768;28;20049;-80
2023/06/04 07:26:13;;;;;;;2.35;1.17;;;;;;;;;;6239320;28;20051;-79
2023/06/04 07:29:15;;;;;;;2.67;1.05;;;;;;;;;;6227367;28;20503;-80
2023/06/04 07:32:17;;;;;;;2.28;1.17;;;;;;;;;;6228981;28;20054;-78
2023/06/04 07:35:19;;;;;;;2.55;1.38;;;;;;;;;;6232567;28;20049;-78
2023/06/04 07:38:21;;;;;;;3.50;1.23;;;;;;;;;;6235680;28;20534;-76
2023/06/04 07:41:23;;;;;;;1.92;1.30;;;;;;;;;;6227408;28;20068;-80
2023/06/04 07:44:24;;;;;;;2.35;1.20;;;;;;;;;;6253727;28;20052;-81
2023/06/04 07:47:26;;;;;;;2.45;1.13;;;;;;;;;;6210473;28;20049;-80
2023/06/04 07:50:28;;;;;;;3.27;1.30;;;;;;;;;;6223634;28;20467;-80
2023/06/04 07:53:30;;;;;;;1.63;1.08;;;;;;;;;;6221558;28;20046;-79
2023/06/04 07:56:32;;;;;;;2.13;1.48;;;;;;;;;;6217120;28;20519;-78
2023/06/04 07:59:33;;;;;;;3.00;1.60;;;;;;;;;;6215692;28;20053;-80
2023/06/04 08:02:35;;;;;;;2.20;1.23;;;;;;;;;;6217156;28;20046;-79
2023/06/04 08:05:37;;;;;;;2.17;1.45;;;;;;;;;;6217982;28;20084;-80
2023/06/04 08:08:42;;;;;;;2.97;1.50;;;;;;;;;;6217952;28;20495;-78
2023/06/04 08:11:44;;;;;;;3.10;1.73;;;;;;;;;;6248996;28;20057;-81
2023/06/04 08:14:46;;;;;;;2.33;1.35;;;;;;;;;;6225479;28;20393;-79
2023/06/04 08:17:48;;;;;;;3.07;1.40;;;;;;;;;;6222337;28;20093;-78
2023/06/04 08:20:50;;;;;;;3.30;1.40;;;;;;;;;;6233670;28;20099;-80
2023/06/04 08:23:52;;;;;;;4.90;2.07;;;;;;;;;;6212222;28;20180;-78
2023/06/04 08:26:54;;;;;;;4.43;2.20;;;;;;;;;;6221150;28;20087;-82
2023/06/04 08:29:57;;;;;;;4.88;2.17;;;;;;;;;;6225532;28;20065;-78
2023/06/04 08:32:58;;;;;;;4.40;2.58;;;;;;;;;;6225621;28;20503;-79
2023/06/04 08:36:00;;;;;;;3.38;2.70;;;;;;;;;;6220736;28;20057;-77
2023/06/04 08:39:02;;;;;;;4.25;2.75;;;;;;;;;;6218052;28;20050;-75
2023/06/04 08:42:07;;;;;;;4.60;2.42;;;;;;;;;;6195349;28;20504;-78
2023/06/04 08:45:13;;;;;;;2.85;2.50;;;;;;;;;;6221953;28;20057;-79
2023/06/04 08:48:18;;;;;;;3.75;2.25;;;;;;;;;;6216717;28;20096;-80
2023/06/04 08:51:20;;;;;;;4.40;2.53;;;;;;;;;;6214824;28;20050;-78
2023/06/04 08:54:22;;;;;;;4.40;2.60;;;;;;;;;;6226134;28;20046;-79
2023/06/04 08:57:23;;;;;;;4.28;2.50;;;;;;;;;;6223969;28;20041;-77
2023/06/04 09:00:25;;;;;;;3.70;2.60;;;;;;;;;;6222594;28;20041;-77
2023/06/04 09:03:32;;;;;;;4.55;2.50;;;;;;;;;;6221824;28;20049;-77
2023/06/04 09:06:36;;;;;;;3.58;2.50;;;;;;;;;;6225504;28;20105;-79
2023/06/04 09:09:40;;;;;;;4.85;3.00;;;;;;;;;;6223345;28;20048;-78
2023/06/04 09:12:44;;;;;;;3.78;2.60;;;;;;;;;;6234192;28;20049;-79
2023/06/04 09:15:46;;;;;;;4.05;2.40;;;;;;;;;;6232377;28;20096;-80
2023/06/04 09:18:48;;;;;;;3.13;2.40;;;;;;;;;;6236108;28;20056;-81
2023/06/04 09:21:58;;;;;;;4.13;2.63;;;;;;;;;;6228262;28;20046;-79
2023/06/04 09:25:00;;;;;;;3.40;2.50;;;;;;;;;;6231697;28;20038;-81
2023/06/04 09:28:06;;;;;;;4.20;2.40;;;;;;;;;;6236062;28;20518;-80
2023/06/04 09:31:13;;;;;;;4.90;2.30;;;;;;;;;;6221600;28;20068;-81
2023/06/04 09:34:15;;;;;;;4.35;2.50;;;;;;;;;;6218925;28;20050;-81
2023/06/04 09:37:19;;;;;;;5.15;2.30;;;;;;;;;;6217169;28;20065;-81
2023/06/04 09:40:21;;;;;;;5.13;2.20;;;;;;;;;;6229167;28;21656;-82
2023/06/04 09:43:23;;;;;;;2.53;2.08;;;;;;;;;;6229803;28;20658;-81
2023/06/04 09:46:25;;;;;;;4.30;2.27;;;;;;;;;;6233856;28;20046;-81
2023/06/04 09:49:26;;;;;;;2.88;2.15;;;;;;;;;;6225911;28;20056;-80
2023/06/04 09:52:35;;;;;;;3.55;2.20;;;;;;;;;;6227834;28;20038;-80
2023/06/04 09:55:37;;;;;;;2.90;1.88;;;;;;;;;;6209853;28;20498;-79
2023/06/04 09:58:40;;;;;;;4.20;2.85;;;;;;;;;;6219506;28;20155;-79
2023/06/04 10:01:45;;;;;;;3.67;2.15;;;;;;;;;;6219007;28;20053;-79
2023/06/04 10:04:56;;;;;;;2.17;1.95;;;;;;;;;;6223890;28;20184;-80
2023/06/04 10:08:05;;;;;;;2.00;1.80;;;;;;;;;;6218759;28;20080;-80
2023/06/04 10:11:07;;;;;;;2.88;2.08;;;;;;;;;;6208906;28;20050;-79
2023/06/04 10:14:24;;;;;;;3.30;2.10;;;;;;;;;;6224039;28;20046;-82
2023/06/04 10:17:28;;;;;;;7.53;2.35;;;;;;;;;;6225232;28;20527;-80
2023/06/04 10:20:31;;;;;;;3.08;2.05;;;;;;;;;;6230508;28;20045;-79
2023/06/04 10:23:33;;;;;;;3.80;2.10;;;;;;;;;;6226695;28;20175;-79
2023/06/04 10:26:35;;;;;;;4.20;2.30;;;;;;;;;;6229239;28;20046;-77
2023/06/04 10:29:37;;;;;;;3.08;2.22;;;;;;;;;;6222987;28;20092;-78
2023/06/04 10:32:40;;;;;;;3.00;2.15;;;;;;;;;;6225414;28;20057;-80
2023/06/04 10:35:43;;;;;;;10.50;4.20;;;;;;;;;;6227218;28;20052;-80
2023/06/04 10:38:48;;;;;;;3.80;2.60;;;;;;;;;;6229130;28;20061;-82
2023/06/04 10:42:03;;;;;;;5.68;2.72;;;;;;;;;;6235163;28;20046;-81
2023/06/04 10:45:07;;;;;;;4.35;2.30;;;;;;;;;;6265919;28;20036;-80
2023/06/04 10:48:10;;;;;;;3.50;2.08;;;;;;;;;;6265084;28;20060;-80
2023/06/04 10:51:12;;;;;;;3.42;2.45;;;;;;;;;;6237001;28;20162;-77
2023/06/04 10:54:24;;;;;;;2.87;2.20;;;;;;;;;;6231862;28;20045;-79
2023/06/04 10:57:25;;;;;;;3.15;2.58;;;;;;;;;;6232544;28;20527;-79
2023/06/04 11:00:49;;;;;;;3.53;2.30;;;;;;;;;;6231004;28;20530;-80
2023/06/04 11:03:51;;;;;;;4.47;2.30;;;;;;;;;;6236426;28;20040;-78
2023/06/04 11:07:08;;;;;;;4.27;2.30;;;;;;;;;;6231739;28;20053;-79
2023/06/04 11:10:11;;;;;;;4.25;2.35;;;;;;;;;;6233122;28;20056;-81
2023/06/04 11:13:13;;;;;;;3.75;2.45;;;;;;;;;;6237428;28;20060;-79
2023/06/04 11:16:19;;;;;;;4.93;2.40;;;;;;;;;;6241715;28;20045;-79
2023/06/04 11:19:22;;;;;;;3.22;2.70;;;;;;;;;;6229355;28;20052;-80
2023/06/04 11:22:24;;;;;;;5.82;2.50;;;;;;;;;;6212936;28;20041;-81
2023/06/04 11:25:26;;;;;;;2.95;2.35;;;;;;;;;;6240227;28;20050;-80
2023/06/04 11:28:28;;;;;;;3.85;2.60;;;;;;;;;;6267685;28;20423;-81
2023/06/04 11:31:42;;;;;;;3.13;2.58;;;;;;;;;;6215876;28;20066;-80
2023/06/04 11:34:44;;;;;;;4.68;3.08;;;;;;;;;;6222429;28;20061;-80
2023/06/04 11:37:56;;;;;;;4.40;2.80;;;;;;;;;;6238163;28;20383;-80
2023/06/04 11:41:00;;;;;;;3.28;2.97;;;;;;;;;;6224213;28;20050;-80
2023/06/04 11:44:06;;;;;;;4.82;2.90;;;;;;;;;;6226430;28;20049;-76
2023/06/04 11:47:11;;;;;;;4.20;3.10;;;;;;;;;;6216069;28;20492;-76
2023/06/04 11:50:14;;;;;;;3.78;3.00;;;;;;;;;;6219917;28;20053;-78
2023/06/04 11:53:16;;;;;;;3.47;3.03;;;;;;;;;;6223706;28;20046;-80
2023/06/04 11:56:18;;;;;;;5.70;2.63;;;;;;;;;;6222325;28;20045;-83
2023/06/04 11:59:20;;;;;;;3.80;2.90;;;;;;;;;;6227876;28;20050;-84
2023/06/04 12:02:22;;;;;;;6.10;2.83;;;;;;;;;;6220442;28;20049;-79
2023/06/04 12:05:34;;;;;;;4.45;3.13;;;;;;;;;;6220540;28;20045;-81
2023/06/04 12:08:56;;;;;;;2.95;2.58;;;;;;;;;;6220639;28;20045;-78
2023/06/04 12:12:02;;;;;;;3.30;2.80;;;;;;;;;;6222528;28;20654;-79
2023/06/04 12:15:05;;;;;;;3.55;3.00;;;;;;;;;;6222158;28;20061;-79
2023/06/04 12:18:09;;;;;;;3.90;3.30;;;;;;;;;;6230302;28;20055;-83
2023/06/04 12:21:21;;;;;;;3.45;2.90;;;;;;;;;;6227808;28;20052;-81
2023/06/04 12:24:23;;;;;;;5.68;3.38;;;;;;;;;;6239400;28;20107;-79
2023/06/04 12:27:25;;;;;;;3.55;3.25;;;;;;;;;;6225115;28;20052;-80
2023/06/04 12:30:38;;;;;;;4.57;3.63;;;;;;;;;;6263171;28;20053;-79
2023/06/04 12:33:40;;;;;;;;;;;;;;;;;;6231783;28;20049;-79
2023/06/04 12:36:43;;;;;;;3.90;3.58;;;;;;;;;;6223238;28;19928;-80
2023/06/04 12:39:44;;;;;;;;;;;;;;;;;;6236015;28;20046;-79
2023/06/04 12:42:50;;;;;;;5.28;3.25;;;;;;;;;;6230418;28;19928;-78
2023/06/04 12:45:52;;;;;;;4.68;2.83;;;;;;;;;;6227789;28;20516;-78
2023/06/04 12:48:54;;;;;;;3.42;3.13;;;;;;;;;;6231153;28;20058;-78
2023/06/04 12:51:56;;;;;;;3.95;3.13;;;;;;;;;;6209403;28;20113;-78
2023/06/04 12:54:58;;;;;;;3.08;2.88;;;;;;;;;;6247813;28;20068;-77
2023/06/04 12:57:59;;;;;;;3.65;3.33;;;;;;;;;;6225302;28;20046;-77
2023/06/04 13:01:01;;;;;;;3.33;3.03;;;;;;;;;;6230314;28;20053;-79
2023/06/04 13:04:04;;;;;;;4.60;3.15;;;;;;;;;;6226134;28;20065;-77
2023/06/04 13:07:05;;;;;;;;;;;;;;;;;;6222378;28;20045;-79
2023/06/04 13:10:07;;;;;;;3.38;3.08;;;;;;;;;;6211791;28;19929;-79
2023/06/04 13:13:09;;;;;;;;;;;;;;;;;;6214241;28;20189;-79
2023/06/04 13:16:11;;;;;;;5.10;3.03;;;;;;;;;;6245900;28;20140;-79
2023/06/04 13:19:12;;;;;;;3.70;3.40;;;;;;;;;;6244495;28;20033;-80
2023/06/04 13:22:15;;;;;;;4.55;3.30;;;;;;;;;;6245237;28;20053;-78
2023/06/04 13:25:16;;;;;;;4.82;3.40;;;;;;;;;;6219731;28;20086;-81
2023/06/04 13:28:18;;;;;;;4.18;3.20;;;;;;;;;;6245242;28;20052;-78
2023/06/04 13:31:20;;;;;;;4.78;3.15;;;;;;;;;;6222842;28;20048;-78
2023/06/04 13:34:22;;;;;;;3.75;3.30;;;;;;;;;;6221466;28;20045;-77
2023/06/04 13:37:29;;;;;;;3.67;3.25;;;;;;;;;;6220118;28;20045;-77
2023/06/04 13:40:30;;;;;;;3.92;3.20;;;;;;;;;;6218206;28;20046;-74
2023/06/04 13:43:33;;;;;;;3.78;3.47;;;;;;;;;;6229505;28;20050;-77
2023/06/04 13:46:34;;;;;;;;;;;;;;;;;;6234376;28;20042;-76
2023/06/04 13:49:36;;;;;;;3.33;3.03;;;;;;;;;;6210552;28;19929;-79
2023/06/04 13:52:37;;;;;;;4.25;3.30;;;;;;;;;;6227269;28;20056;-79
2023/06/04 13:55:39;;;;;;;3.92;3.30;;;;;;;;;;6222980;28;20523;-77
2023/06/04 13:58:41;;;;;;;3.45;3.15;;;;;;;;;;6221324;28;20400;-74
2023/06/04 14:01:43;;;;;;;4.45;3.10;;;;;;;;;;6216685;28;20050;-76
2023/06/04 14:04:45;;;;;;;3.35;3.05;;;;;;;;;;6225792;28;20144;-77
2023/06/04 14:07:46;;;;;;;5.22;3.00;;;;;;;;;;6224349;28;20041;-77
2023/06/04 14:10:48;;;;;;;3.33;3.03;;;;;;;;;;6222713;28;20042;-74
2023/06/04 14:13:50;;;;;;;4.85;2.97;;;;;;;;;;6220715;28;20060;-75
2023/06/04 14:16:54;;;;;;;3.95;2.90;;;;;;;;;;6219551;28;20060;-77
2023/06/04 14:19:58;;;;;;;3.40;3.05;;;;;;;;;;6221455;28;20523;-74
2023/06/04 14:23:00;;;;;;;3.05;2.75;;;;;;;;;;6217242;28;20179;-77
2023/06/04 14:26:02;;;;;;;3.25;2.95;;;;;;;;;;6207959;28;20039;-78
2023/06/04 14:29:04;;;;;;;5.80;3.00;;;;;;;;;;6233205;28;20077;-78
2023/06/04 14:32:06;;;;;;;4.10;3.08;;;;;;;;;;6232312;28;20049;-78
2023/06/04 14:35:08;;;;;;;3.60;3.22;;;;;;;;;;6227189;28;20073;-76
2023/06/04 14:38:09;;;;;;;3.03;2.63;;;;;;;;;;6190663;28;20509;-76
2023/06/04 14:41:11;;;;;;;3.58;3.15;;;;;;;;;;6218419;28;20046;-75
2023/06/04 14:44:13;;;;;;;3.17;2.88;;;;;;;;;;6223172;28;20052;-82
2023/06/04 14:47:15;;;;;;;3.75;2.97;;;;;;;;;;6224289;28;20038;-79
2023/06/04 14:50:18;;;;;;;4.95;3.08;;;;;;;;;;6223527;28;20060;-81
2023/06/04 14:53:20;;;;;;;3.63;2.92;;;;;;;;;;6225964;28;20052;-79
2023/06/04 14:56:22;;;;;;;4.30;3.03;;;;;;;;;;6224848;28;20060;-82
2023/06/04 14:59:24;;;;;;;3.40;3.00;;;;;;;;;;6224017;28;20064;-76
2023/06/04 15:02:29;;;;;;;4.18;3.15;;;;;;;;;;6221039;28;20045;-77
2023/06/04 15:05:34;;;;;;;4.63;2.92;;;;;;;;;;6215740;28;20042;-75
2023/06/04 15:08:36;;;;;;;3.08;2.78;;;;;;;;;;6216255;28;20060;-75
2023/06/04 15:11:37;;;;;;;3.88;2.75;;;;;;;;;;6223749;28;20518;-76
2023/06/04 15:14:39;;;;;;;3.20;2.70;;;;;;;;;;6220234;28;20045;-76
2023/06/04 15:17:41;;;;;;;2.83;2.45;;;;;;;;;;6215895;28;20462;-75
2023/06/04 15:20:45;;;;;;;3.80;2.65;;;;;;;;;;6220781;28;20056;-76
2023/06/04 15:23:48;;;;;;;4.25;2.72;;;;;;;;;;6217855;28;20058;-77
2023/06/04 15:26:50;;;;;;;6.10;2.40;;;;;;;;;;6224383;28;20037;-74
2023/06/04 15:29:52;;;;;;;4.05;2.80;;;;;;;;;;6194062;28;20054;-75
2023/06/04 15:32:53;;;;;;;3.08;2.72;;;;;;;;;;6216772;28;20045;-73
2023/06/04 15:35:55;;;;;;;3.45;2.70;;;;;;;;;;6217403;28;20411;-75
2023/06/04 15:38:57;;;;;;;4.45;2.97;;;;;;;;;;6215556;28;20051;-75
2023/06/04 15:41:58;;;;;;;3.50;2.50;;;;;;;;;;6208075;28;20063;-76
2023/06/04 15:45:00;;;;;;;2.75;2.55;;;;;;;;;;6223157;28;20053;-75
2023/06/04 15:48:02;;;;;;;2.70;2.50;;;;;;;;;;6218750;28;20038;-76
2023/06/04 15:51:04;;;;;;;3.53;2.47;;;;;;;;;;6213623;28;20046;-75
2023/06/04 15:54:06;;;;;;;3.15;2.53;;;;;;;;;;6191653;28;20129;-77
2023/06/04 15:57:08;;;;;;;3.47;2.45;;;;;;;;;;6214875;28;20507;-75
2023/06/04 16:00:10;;;;;;;3.40;2.72;;;;;;;;;;6217248;28;20037;-75
2023/06/04 16:03:11;;;;;;;2.60;2.40;;;;;;;;;;6219459;28;20096;-75
2023/06/04 16:06:14;;;;;;;4.40;3.33;;;;;;;;;;6216633;28;20206;-75
2023/06/04 16:09:15;;;;;;;4.05;2.55;;;;;;;;;;6231176;28;20045;-75
2023/06/04 16:12:17;;;;;;;4.30;2.95;;;;;;;;;;6217829;28;20143;-76
2023/06/04 16:15:19;;;;;;;3.10;2.40;;;;;;;;;;6216144;28;20049;-76
2023/06/04 16:18:21;;;;;;;3.15;2.70;;;;;;;;;;6219773;28;20038;-75
2023/06/04 16:21:25;;;;;;;2.75;2.35;;;;;;;;;;6215211;28;20064;-74
2023/06/04 16:24:27;;;;;;;3.15;2.45;;;;;;;;;;6221497;28;20045;-76
2023/06/04 16:27:28;;;;;;;3.70;2.90;;;;;;;;;;6219232;28;20048;-73
2023/06/04 16:30:30;;;;;;;4.15;2.50;;;;;;;;;;6217461;28;20046;-73
2023/06/04 16:33:32;;;;;;;3.30;3.00;;;;;;;;;;6215776;28;20103;-74
2023/06/04 16:36:36;;;;;;;5.50;4.20;;;;;;;;;;6215252;28;20049;-77
2023/06/04 16:44:19;;;;;;;4.20;2.78;;;;;;;;;;6222211;28;20046;-77
2023/06/04 16:47:21;;;;;;;3.27;2.37;;;;;;;;;;6221443;28;20041;-77
2023/06/04 16:50:23;;;;;;;4.00;2.38;;;;;;;;;;6205808;28;20346;-76
2023/06/04 16:53:25;;;;;;;2.53;2.33;;;;;;;;;;6216153;28;20058;-76
2023/06/04 16:56:26;;;;;;;2.75;2.30;;;;;;;;;;6216699;28;20061;-78
2023/06/04 16:59:30;;;;;;;3.97;2.15;;;;;;;;;;6221265;28;20046;-76
2023/06/04 17:02:31;;;;;;;2.65;2.28;;;;;;;;;;6220855;28;20179;-77
2023/06/04 17:05:33;;;;;;;5.00;2.40;;;;;;;;;;6219061;28;20129;-79
2023/06/04 17:08:35;;;;;;;2.40;2.20;;;;;;;;;;6226136;28;20130;-78
2023/06/04 17:11:38;;;;;;;5.35;2.88;;;;;;;;;;6215616;28;20447;-76
2023/06/04 17:14:40;;;;;;;3.28;2.38;;;;;;;;;;6219222;28;20056;-77
2023/06/04 17:17:41;;;;;;;4.95;2.58;;;;;;;;;;6225739;28;20424;-77
2023/06/04 17:20:43;;;;;;;2.53;2.22;;;;;;;;;;6223953;28;20087;-77
2023/06/04 17:23:45;;;;;;;2.43;2.17;;;;;;;;;;6221655;28;20496;-77
2023/06/04 17:26:49;;;;;;;2.92;2.30;;;;;;;;;;6217433;28;20045;-77
2023/06/04 17:29:51;;;;;;;3.80;2.00;;;;;;;;;;6208412;28;20046;-77
2023/06/04 17:32:52;;;;;;;6.53;2.38;;;;;;;;;;6213387;28;20045;-78
2023/06/04 17:35:55;;;;;;;2.70;2.10;;;;;;;;;;6225937;28;20056;-77
2023/06/04 17:38:57;;;;;;;6.00;2.95;;;;;;;;;;6227382;28;20041;-78
2023/06/04 17:42:00;;;;;;;3.25;2.45;;;;;;;;;;6222617;28;20046;-78
2023/06/04 17:45:07;;;;;;;2.45;2.13;;;;;;;;;;6225597;28;20042;-77
2023/06/04 17:48:09;;;;;;;4.07;2.13;;;;;;;;;;6224643;28;20081;-76
2023/06/04 17:51:10;;;;;;;5.27;2.50;;;;;;;;;;6216683;28;20104;-77
2023/06/04 17:54:12;;;;;;;2.95;2.20;;;;;;;;;;6218398;28;20057;-77
2023/06/04 17:57:14;;;;;;;3.25;2.33;;;;;;;;;;6199873;28;20475;-78
2023/06/04 18:00:16;;;;;;;2.60;2.20;;;;;;;;;;6223229;28;20045;-77
2023/06/04 18:03:17;;;;;;;3.17;1.95;;;;;;;;;;6223119;28;20045;-78
2023/06/04 18:06:19;;;;;;;2.83;2.17;;;;;;;;;;6219210;28;20050;-77
2023/06/04 18:09:21;;;;;;;2.95;1.73;;;;;;;;;;6220629;28;20425;-77
2023/06/04 18:12:23;;;;;;;2.40;1.90;;;;;;;;;;6231106;28;20563;-77
2023/06/04 18:15:24;;;;;;;3.55;2.20;;;;;;;;;;6230401;28;20058;-78
2023/06/04 18:18:28;;;;;;;2.30;2.03;;;;;;;;;;6216118;28;20042;-79
2023/06/04 18:21:30;;;;;;;3.80;2.10;;;;;;;;;;6260492;28;20489;-78
2023/06/04 18:24:34;;;;;;;1.83;1.70;;;;;;;;;;6226101;28;20045;-79